Alton, Virginia
Current Conditions -  °F | °C
As of 11:35 AM on Monday 24 Nov 2014 (Local Time) from KW78 Reporting Station
Broken Clouds Broken Clouds  
Wind Chill: 70°   Ceiling: 3200
Heat Index: 70°   Visibility: 10mi
Dew Point: 55°   Wind: 15mph
Humidity: 60%   Direction: 200°SSW
Pressure: 29.76"   Gusts: 28mph
Location:  36.57°N, 79°W
Report Text: KW78 241635Z AUTO 20013G24KT 10SM BKN032 BKN038 21/13 A2976 RMK AO1 T02090128
Loading
Personal Weather Stations






























Interactive Weather Map New forecast layout! Learn more

10-Day Weather Forecast

Advertisements
Track Severe Weather on mobile